createdAt,value
2024-05-09T00:00:18.675Z,7.42
2024-05-09T00:02:52.960Z,7.37
2024-05-09T00:05:19.532Z,7.33
2024-05-09T00:07:46.180Z,7.30
2024-05-09T00:10:22.246Z,7.30
2024-05-09T00:12:55.548Z,7.28
2024-05-09T00:15:22.058Z,7.23
2024-05-09T00:17:48.660Z,7.20
2024-05-09T00:20:20.503Z,7.17
2024-05-09T00:22:51.256Z,7.15
2024-05-09T00:25:17.906Z,7.13
2024-05-09T00:27:44.386Z,7.09
2024-05-09T00:30:17.443Z,7.09
2024-05-09T00:32:48.189Z,7.07
2024-05-09T00:35:14.906Z,7.05
2024-05-09T00:37:41.409Z,7.01
2024-05-09T00:40:15.090Z,6.97
2024-05-09T00:42:48.917Z,6.91
2024-05-09T00:45:15.540Z,6.91
2024-05-09T00:47:43.386Z,6.88
2024-05-09T00:50:15.963Z,6.84
2024-05-09T00:52:49.246Z,6.82
2024-05-09T00:55:17.009Z,6.78
2024-05-09T00:57:44.614Z,6.74
2024-05-09T01:00:22.394Z,6.72
2024-05-09T01:02:57.033Z,6.69
2024-05-09T01:05:23.650Z,6.67
2024-05-09T01:07:50.223Z,6.65
2024-05-09T01:10:21.297Z,6.62
2024-05-09T01:12:54.212Z,6.60
2024-05-09T01:15:20.697Z,6.59
2024-05-09T01:17:47.369Z,6.58
2024-05-09T01:20:20.162Z,6.56
2024-05-09T01:22:54.220Z,6.54
2024-05-09T01:25:20.768Z,6.50
2024-05-09T01:27:47.261Z,6.45
2024-05-09T01:30:17.438Z,6.41
2024-05-09T01:32:47.944Z,6.39
2024-05-09T01:35:14.567Z,6.34
2024-05-09T01:37:41.191Z,6.33
2024-05-09T01:40:12.293Z,6.33
2024-05-09T01:42:41.871Z,6.31
2024-05-09T01:45:09.166Z,6.29
2024-05-09T01:47:36.106Z,6.24
2024-05-09T01:50:05.103Z,6.23
2024-05-09T01:52:38.470Z,6.21
2024-05-09T01:55:07.226Z,6.20
2024-05-09T01:57:33.922Z,6.21
2024-05-09T02:00:00.530Z,6.17
2024-05-09T02:02:27.148Z,6.13
2024-05-09T02:04:53.896Z,6.08
2024-05-09T02:07:20.581Z,6.04
2024-05-09T02:09:47.092Z,6.04
2024-05-09T02:12:13.684Z,6.02
2024-05-09T02:14:40.441Z,6.00
2024-05-09T02:17:07.106Z,5.97
2024-05-09T02:19:33.777Z,5.97
2024-05-09T02:22:00.381Z,5.96
2024-05-09T02:24:27.070Z,5.91
2024-05-09T02:26:53.572Z,5.92
2024-05-09T02:29:20.212Z,5.90
2024-05-09T02:31:46.877Z,5.89
2024-05-09T02:34:13.557Z,5.82
2024-05-09T02:36:40.244Z,5.81
2024-05-09T02:39:06.780Z,5.76
2024-05-09T02:41:33.378Z,5.75
2024-05-09T02:44:00.130Z,5.74
2024-05-09T02:46:26.678Z,5.71
2024-05-09T02:48:53.322Z,5.69
2024-05-09T02:51:19.969Z,5.70
2024-05-09T02:53:46.508Z,5.67
2024-05-09T02:56:13.030Z,5.64
2024-05-09T02:58:39.672Z,5.63
2024-05-09T03:01:06.239Z,5.60
2024-05-09T03:03:33.024Z,5.58
2024-05-09T03:06:01.342Z,5.59
2024-05-09T03:08:28.022Z,5.56
2024-05-09T03:10:54.634Z,5.55
2024-05-09T03:13:21.190Z,5.54
2024-05-09T03:15:47.735Z,5.51
2024-05-09T03:18:15.285Z,5.51
2024-05-09T03:20:44.192Z,5.46
2024-05-09T03:23:11.090Z,5.46
2024-05-09T03:25:38.494Z,5.45
2024-05-09T03:28:05.593Z,5.46
2024-05-09T03:30:39.915Z,5.39
2024-05-09T03:33:20.229Z,5.37
2024-05-09T03:35:49.037Z,5.35
2024-05-09T03:38:16.183Z,5.35
2024-05-09T03:40:47.235Z,5.34
2024-05-09T03:43:14.108Z,5.34
2024-05-09T03:45:40.742Z,5.32
2024-05-09T03:48:08.234Z,5.33
2024-05-09T03:50:36.316Z,5.31
2024-05-09T03:53:03.883Z,5.29
2024-05-09T03:55:30.935Z,5.29
2024-05-09T03:57:57.473Z,5.31
2024-05-09T04:00:31.318Z,5.26
2024-05-09T04:03:05.531Z,5.29
2024-05-09T04:05:33.198Z,5.27
2024-05-09T04:07:59.859Z,5.24
2024-05-09T04:10:33.567Z,5.27
2024-05-09T04:13:01.860Z,5.28
2024-05-09T04:15:28.531Z,5.30
2024-05-09T04:17:55.243Z,5.32
2024-05-09T04:20:32.990Z,5.32
2024-05-09T04:23:05.995Z,5.30
2024-05-09T04:25:32.765Z,5.33
2024-05-09T04:27:59.468Z,5.38
2024-05-09T04:30:34.800Z,5.40
2024-05-09T04:33:06.077Z,5.42
2024-05-09T04:35:33.204Z,5.47
2024-05-09T04:38:00.462Z,5.46
2024-05-09T04:40:33.147Z,5.50
2024-05-09T04:43:03.155Z,5.54
2024-05-09T04:45:29.964Z,5.60
2024-05-09T04:47:56.750Z,5.65
2024-05-09T04:50:32.702Z,5.69
2024-05-09T04:53:03.447Z,5.73
2024-05-09T04:55:30.432Z,5.81
2024-05-09T04:57:57.032Z,5.85
2024-05-09T05:00:32.377Z,5.89
2024-05-09T05:03:06.903Z,5.95
2024-05-09T05:05:34.819Z,5.99
2024-05-09T05:08:01.413Z,6.05
2024-05-09T05:10:33.957Z,6.10
2024-05-09T05:13:17.858Z,6.15
2024-05-09T05:15:46.385Z,6.21
2024-05-09T05:18:14.904Z,6.27
2024-05-09T05:20:41.979Z,6.34
2024-05-09T05:23:16.386Z,6.44
2024-05-09T05:25:43.247Z,6.51
2024-05-09T05:28:10.750Z,6.56
2024-05-09T05:30:38.189Z,6.62
2024-05-09T05:33:06.136Z,6.67
2024-05-09T05:35:33.714Z,6.79
2024-05-09T05:38:00.508Z,6.88
2024-05-09T05:40:33.456Z,6.98
2024-05-09T05:43:11.034Z,7.15
2024-05-09T05:45:38.962Z,7.32
2024-05-09T05:48:07.378Z,7.49
2024-05-09T05:50:37.154Z,7.65
2024-05-09T05:53:09.364Z,7.86
2024-05-09T05:55:37.670Z,8.05
2024-05-09T05:58:04.450Z,8.25
2024-05-09T06:00:38.171Z,8.45
2024-05-09T06:03:07.177Z,8.68
2024-05-09T06:05:35.117Z,8.89
2024-05-09T06:08:01.912Z,9.06
2024-05-09T06:10:35.249Z,9.23
2024-05-09T06:13:05.618Z,9.33
2024-05-09T06:15:32.169Z,9.44
2024-05-09T06:17:59.252Z,9.59
2024-05-09T06:20:34.628Z,9.71
2024-05-09T06:23:04.885Z,9.84
2024-05-09T06:25:31.826Z,9.98
2024-05-09T06:28:00.096Z,10.06
2024-05-09T06:30:35.303Z,10.25
2024-05-09T06:33:06.795Z,10.35
2024-05-09T06:35:34.058Z,10.43
2024-05-09T06:38:00.966Z,10.49
2024-05-09T06:40:36.248Z,10.60
2024-05-09T06:43:10.768Z,10.63
2024-05-09T06:45:39.456Z,10.76
2024-05-09T06:48:06.913Z,10.79
2024-05-09T06:50:37.612Z,10.93
2024-05-09T06:53:05.746Z,11.02
2024-05-09T06:55:32.305Z,11.03
2024-05-09T06:57:59.004Z,11.32
2024-05-09T07:00:34.442Z,11.41
2024-05-09T07:03:09.095Z,11.31
2024-05-09T07:05:36.138Z,11.46
2024-05-09T07:08:03.640Z,11.65
2024-05-09T07:10:34.837Z,11.78
2024-05-09T07:13:02.555Z,11.82
2024-05-09T07:15:29.083Z,11.95
2024-05-09T07:17:55.779Z,11.87
2024-05-09T07:20:31.755Z,11.88
2024-05-09T07:23:03.045Z,11.91
2024-05-09T07:25:30.031Z,11.49
2024-05-09T07:27:56.751Z,11.54
2024-05-09T07:30:32.531Z,11.62
2024-05-09T07:33:01.414Z,11.85
2024-05-09T07:35:28.814Z,11.93
2024-05-09T07:37:55.501Z,12.04
2024-05-09T07:40:31.605Z,11.94
2024-05-09T07:43:05.383Z,11.88
2024-05-09T07:53:36.024Z,11.78
2024-05-09T07:55:47.246Z,11.62
2024-05-09T07:58:13.784Z,11.82
2024-05-09T08:00:40.450Z,11.90
2024-05-09T08:03:07.251Z,11.91
2024-05-09T08:05:33.970Z,12.00
2024-05-09T08:08:00.656Z,12.15
2024-05-09T08:10:29.065Z,12.26
2024-05-09T08:12:56.038Z,12.39
2024-05-09T08:15:22.636Z,12.46
2024-05-09T08:17:49.351Z,12.55
2024-05-09T08:20:26.456Z,12.60
2024-05-09T08:22:57.335Z,12.71
2024-05-09T08:25:23.913Z,12.79
2024-05-09T08:27:50.477Z,12.89
2024-05-09T08:30:24.665Z,12.93
2024-05-09T08:32:56.251Z,13.09
2024-05-09T08:35:22.872Z,13.22
2024-05-09T08:37:49.982Z,13.38
2024-05-09T08:40:23.420Z,13.51
2024-05-09T08:42:56.122Z,13.62
2024-05-09T08:45:22.751Z,13.59
2024-05-09T08:47:52.754Z,13.63
2024-05-09T08:50:31.491Z,13.84
2024-05-09T08:53:04.348Z,14.05
2024-05-09T08:55:31.047Z,14.04
2024-05-09T08:57:59.162Z,14.10
2024-05-09T09:00:35.613Z,14.32
2024-05-09T09:03:07.643Z,14.38
2024-05-09T09:05:38.066Z,14.40
2024-05-09T09:08:07.572Z,14.56
2024-05-09T09:10:35.179Z,14.58
2024-05-09T09:13:04.682Z,14.72
2024-05-09T09:15:31.937Z,14.81
2024-05-09T09:18:00.875Z,14.93
2024-05-09T09:20:35.391Z,15.13
2024-05-09T09:23:03.667Z,15.26
2024-05-09T09:25:30.397Z,15.37
2024-05-09T09:27:58.648Z,15.37
2024-05-09T09:30:35.008Z,15.59
2024-05-09T09:33:05.101Z,15.72
2024-05-09T09:35:32.632Z,15.84
2024-05-09T09:38:02.801Z,15.86
2024-05-09T09:40:36.228Z,15.90
2024-05-09T09:43:13.830Z,15.93
2024-05-09T09:45:43.660Z,15.95
2024-05-09T09:48:12.000Z,16.14
2024-05-09T09:50:40.052Z,16.26
2024-05-09T09:53:08.154Z,16.33
2024-05-09T09:55:35.571Z,16.23
2024-05-09T09:58:04.253Z,16.32
2024-05-09T10:00:33.599Z,16.52
2024-05-09T10:03:01.608Z,16.66
2024-05-09T10:05:29.098Z,16.85
2024-05-09T10:07:57.365Z,16.74
2024-05-09T10:10:31.802Z,16.69
2024-05-09T10:13:08.953Z,16.83
2024-05-09T10:15:54.599Z,16.90
2024-05-09T10:18:27.280Z,17.02
2024-05-09T10:20:56.188Z,16.98
2024-05-09T10:23:27.529Z,17.14
2024-05-09T10:26:01.045Z,17.27
2024-05-09T10:28:32.352Z,17.15
2024-05-09T10:31:13.269Z,17.28
2024-05-09T10:33:46.138Z,17.40
2024-05-09T10:36:26.380Z,17.55
2024-05-09T10:38:54.240Z,17.69
2024-05-09T10:41:21.942Z,17.67
2024-05-09T10:43:48.933Z,17.53
2024-05-09T10:46:16.815Z,17.76
2024-05-09T10:48:44.297Z,17.80
2024-05-09T10:51:11.613Z,18.02
2024-05-09T10:53:46.103Z,18.12
2024-05-09T10:56:17.029Z,18.30
2024-05-09T10:58:44.053Z,18.42
2024-05-09T11:01:10.983Z,18.22
2024-05-09T11:03:39.095Z,18.42
2024-05-09T11:06:06.530Z,18.66
2024-05-09T11:08:34.652Z,18.52
2024-05-09T11:11:03.065Z,18.72
2024-05-09T11:13:31.556Z,18.79
2024-05-09T11:15:59.286Z,18.85
2024-05-09T11:18:30.642Z,18.81
2024-05-09T11:21:00.295Z,18.92
2024-05-09T11:23:30.010Z,18.98
2024-05-09T11:25:58.249Z,18.82
2024-05-09T11:28:26.985Z,18.78
2024-05-09T11:31:05.287Z,18.73
2024-05-09T11:33:32.045Z,18.85
2024-05-09T11:35:58.696Z,19.02
2024-05-09T11:38:25.231Z,19.23
2024-05-09T11:40:51.845Z,19.36
2024-05-09T11:43:18.531Z,19.44
2024-05-09T11:45:45.146Z,19.30
2024-05-09T11:48:11.814Z,19.37
2024-05-09T11:50:38.949Z,19.60
2024-05-09T11:53:06.384Z,19.66
2024-05-09T11:55:36.685Z,19.64
2024-05-09T11:58:04.237Z,19.67
2024-05-09T12:00:36.648Z,19.50
2024-05-09T12:03:05.696Z,19.64
2024-05-09T12:05:34.003Z,19.56
2024-05-09T12:08:01.353Z,19.45
2024-05-09T12:10:33.287Z,19.76
2024-05-09T12:13:03.494Z,19.92
2024-05-09T12:15:31.635Z,19.90
2024-05-09T12:18:00.246Z,19.91
2024-05-09T12:20:36.179Z,19.93
2024-05-09T12:23:06.063Z,19.69
2024-05-09T12:25:32.809Z,19.70
2024-05-09T12:27:59.575Z,19.87
2024-05-09T12:30:35.311Z,20.07
2024-05-09T12:33:05.832Z,20.27
2024-05-09T12:35:32.692Z,20.43
2024-05-09T12:37:59.243Z,20.62
2024-05-09T12:40:34.409Z,20.79
2024-05-09T12:43:04.841Z,20.89
2024-05-09T12:45:31.870Z,20.94
2024-05-09T12:47:58.696Z,21.10
2024-05-09T12:50:31.816Z,21.02
2024-05-09T12:53:00.352Z,21.04
2024-05-09T12:55:28.116Z,21.02
2024-05-09T12:57:55.304Z,21.07
2024-05-09T13:00:28.172Z,20.95
2024-05-09T13:03:00.344Z,21.18
2024-05-09T13:05:27.375Z,21.08
2024-05-09T13:07:54.116Z,20.74
2024-05-09T13:10:28.999Z,21.05
2024-05-09T13:12:59.269Z,20.97
2024-05-09T13:15:25.929Z,21.31
2024-05-09T13:17:52.882Z,21.44
2024-05-09T13:20:28.881Z,21.21
2024-05-09T13:23:01.867Z,21.01
2024-05-09T13:25:28.477Z,21.11
2024-05-09T13:27:55.860Z,21.37
2024-05-09T13:30:29.605Z,21.57
2024-05-09T13:33:05.262Z,21.68
2024-05-09T13:35:34.196Z,21.67
2024-05-09T13:38:02.117Z,21.76
2024-05-09T13:40:33.666Z,21.63
2024-05-09T13:43:03.137Z,22.05
2024-05-09T13:45:29.930Z,22.11
2024-05-09T13:47:56.984Z,21.60
2024-05-09T13:50:31.603Z,21.30
2024-05-09T13:53:02.088Z,21.18
2024-05-09T13:55:28.795Z,21.17
2024-05-09T13:57:55.942Z,21.46
2024-05-09T14:00:32.489Z,21.70
2024-05-09T14:03:09.804Z,22.02
2024-05-09T14:05:36.668Z,22.24
2024-05-09T14:08:03.433Z,21.73
2024-05-09T14:10:31.920Z,21.38
2024-05-09T14:12:59.697Z,21.07
2024-05-09T14:15:26.275Z,21.01
2024-05-09T14:17:53.305Z,21.06
2024-05-09T14:20:29.894Z,20.87
2024-05-09T14:22:58.843Z,20.80
2024-05-09T14:25:28.201Z,20.71
2024-05-09T14:27:55.051Z,20.58
2024-05-09T14:30:30.324Z,20.60
2024-05-09T14:33:02.767Z,20.50
2024-05-09T14:35:29.424Z,20.58
2024-05-09T14:37:55.992Z,20.64
2024-05-09T14:40:35.737Z,20.68
2024-05-09T14:43:07.700Z,20.81
2024-05-09T14:45:34.629Z,20.77
2024-05-09T14:48:02.234Z,20.74
2024-05-09T14:50:35.461Z,20.85
2024-05-09T14:53:06.194Z,20.93
2024-05-09T14:55:35.767Z,21.15
2024-05-09T14:58:03.399Z,21.24
2024-05-09T15:00:35.613Z,21.08
2024-05-09T15:03:03.991Z,21.19
2024-05-09T15:05:30.699Z,21.26
2024-05-09T15:07:58.029Z,21.12
2024-05-09T15:10:33.711Z,20.89
2024-05-09T15:13:02.603Z,20.77
2024-05-09T15:15:29.345Z,20.62
2024-05-09T15:17:56.130Z,20.70
2024-05-09T15:20:31.031Z,20.52
2024-05-09T15:23:02.102Z,20.54
2024-05-09T15:25:28.884Z,20.52
2024-05-09T15:27:55.577Z,20.64
2024-05-09T15:30:29.584Z,20.66
2024-05-09T15:32:58.500Z,20.57
2024-05-09T15:35:25.083Z,20.83
2024-05-09T15:37:51.724Z,21.04
2024-05-09T15:40:26.433Z,21.12
2024-05-09T15:43:02.318Z,21.20
2024-05-09T15:45:29.296Z,21.36
2024-05-09T15:47:57.241Z,21.57
2024-05-09T15:50:35.330Z,21.61
2024-05-09T15:53:06.458Z,21.51
2024-05-09T15:55:34.395Z,21.33
2024-05-09T15:58:02.302Z,21.53
2024-05-09T16:00:37.318Z,21.65
2024-05-09T16:03:07.959Z,21.88
2024-05-09T16:05:34.728Z,21.63
2024-05-09T16:08:01.407Z,21.80
2024-05-09T16:10:32.661Z,21.79
2024-05-09T16:13:01.253Z,21.35
2024-05-09T16:15:27.998Z,21.36
2024-05-09T16:17:55.311Z,21.45
2024-05-09T16:20:33.919Z,21.46
2024-05-09T16:23:06.376Z,21.66
2024-05-09T16:25:33.219Z,21.49
2024-05-09T16:28:00.124Z,21.28
2024-05-09T16:30:33.907Z,21.51
2024-05-09T16:33:03.382Z,21.71
2024-05-09T16:35:30.530Z,21.79
2024-05-09T16:37:57.303Z,21.79
2024-05-09T16:40:33.051Z,21.68
2024-05-09T16:43:04.835Z,21.70
2024-05-09T16:45:31.945Z,21.54
2024-05-09T16:48:00.072Z,21.22
2024-05-09T16:50:32.383Z,21.53
2024-05-09T16:53:01.104Z,21.48
2024-05-09T16:55:27.982Z,21.53
2024-05-09T16:57:55.506Z,21.25
2024-05-09T17:00:31.667Z,21.34
2024-05-09T17:03:07.215Z,21.38
2024-05-09T17:05:34.631Z,21.17
2024-05-09T17:08:01.615Z,20.86
2024-05-09T17:10:32.891Z,20.76
2024-05-09T17:13:01.834Z,20.54
2024-05-09T17:15:28.663Z,20.47
2024-05-09T17:17:55.863Z,20.55
2024-05-09T17:20:29.666Z,20.62
2024-05-09T17:23:01.610Z,20.68
2024-05-09T17:25:28.362Z,20.66
2024-05-09T17:27:55.272Z,20.72
2024-05-09T17:30:29.042Z,20.71
2024-05-09T17:33:02.156Z,20.71
2024-05-09T17:35:29.052Z,20.32
2024-05-09T17:37:55.850Z,20.23
2024-05-09T17:40:30.872Z,20.31
2024-05-09T17:43:01.624Z,20.29
2024-05-09T17:45:28.507Z,20.21
2024-05-09T17:47:55.314Z,20.12
2024-05-09T17:50:27.951Z,20.06
2024-05-09T17:53:03.229Z,19.96
2024-05-09T17:55:30.018Z,19.79
2024-05-09T17:57:56.974Z,19.67
2024-05-09T18:00:33.373Z,19.62
2024-05-09T18:03:06.243Z,19.52
2024-05-09T18:05:33.198Z,19.49
2024-05-09T18:08:07.067Z,19.35
2024-05-09T18:10:37.879Z,19.26
2024-05-09T18:13:07.573Z,19.13
2024-05-09T18:15:34.416Z,19.01
2024-05-09T18:18:02.388Z,18.92
2024-05-09T18:20:38.019Z,18.82
2024-05-09T18:23:10.632Z,18.78
2024-05-09T18:25:37.357Z,18.68
2024-05-09T18:28:04.501Z,18.49
2024-05-09T18:30:34.599Z,18.45
2024-05-09T18:33:03.446Z,18.33
2024-05-09T18:35:30.188Z,18.23
2024-05-09T18:37:56.818Z,18.13
2024-05-09T18:42:52.789Z,17.92
2024-05-09T18:45:19.348Z,17.82
2024-05-09T18:47:46.038Z,17.74
2024-05-09T18:50:17.725Z,17.59
2024-05-09T18:52:51.378Z,17.47
2024-05-09T18:55:17.947Z,17.36
2024-05-09T18:57:44.635Z,17.22
2024-05-09T19:00:22.704Z,17.13
2024-05-09T19:02:57.054Z,17.06
2024-05-09T19:05:23.825Z,16.91
2024-05-09T19:07:50.481Z,16.83
2024-05-09T19:10:22.577Z,16.71
2024-05-09T19:12:52.634Z,16.59
2024-05-09T19:15:19.138Z,16.49
2024-05-09T19:17:46.317Z,16.34
2024-05-09T19:20:24.683Z,16.19
2024-05-09T19:22:55.337Z,15.96
2024-05-09T19:25:21.874Z,15.82
2024-05-09T19:27:48.519Z,15.64
2024-05-09T19:30:24.955Z,15.50
2024-05-09T19:33:00.065Z,15.38
2024-05-09T19:35:26.619Z,15.24
2024-05-09T19:37:53.224Z,15.10
2024-05-09T19:40:28.517Z,14.98
2024-05-09T19:42:58.219Z,14.83
2024-05-09T19:45:24.861Z,14.71
2024-05-09T19:47:51.691Z,14.56
2024-05-09T19:50:26.637Z,14.47
2024-05-09T19:52:59.295Z,14.32
2024-05-09T19:55:25.865Z,14.20
2024-05-09T19:57:52.470Z,14.08
2024-05-09T20:00:26.012Z,13.95
2024-05-09T20:02:56.343Z,13.84
2024-05-09T20:05:23.542Z,13.74
2024-05-09T20:07:50.169Z,13.62
2024-05-09T20:10:23.637Z,13.52
2024-05-09T20:12:53.755Z,13.42
2024-05-09T20:15:20.393Z,13.33
2024-05-09T20:17:47.297Z,13.22
2024-05-09T20:20:24.509Z,13.12
2024-05-09T20:22:59.802Z,13.03
2024-05-09T20:25:26.434Z,12.96
2024-05-09T20:27:53.041Z,12.88
2024-05-09T20:30:28.963Z,12.77
2024-05-09T20:32:59.970Z,12.70
2024-05-09T20:35:26.835Z,12.61
2024-05-09T20:37:53.514Z,12.52
2024-05-09T20:40:28.318Z,12.43
2024-05-09T20:42:58.839Z,12.39
2024-05-09T20:45:25.533Z,12.31
2024-05-09T20:47:52.265Z,12.24
2024-05-09T20:50:27.996Z,12.16
2024-05-09T20:53:02.618Z,12.10
2024-05-09T20:55:30.027Z,12.03
2024-05-09T20:57:56.968Z,11.96
2024-05-09T21:00:30.272Z,11.91
2024-05-09T21:03:05.816Z,11.79
2024-05-09T21:05:32.951Z,11.74
2024-05-09T21:07:59.607Z,11.67
2024-05-09T21:10:27.268Z,11.63
2024-05-09T21:12:56.377Z,11.56
2024-05-09T21:15:22.978Z,11.51
2024-05-09T21:17:49.620Z,11.49
2024-05-09T21:20:20.466Z,11.41
2024-05-09T21:22:50.711Z,11.35
2024-05-09T21:25:17.268Z,11.29
2024-05-09T21:27:43.904Z,11.23
2024-05-09T21:30:16.046Z,11.17
2024-05-09T21:32:49.264Z,11.10
2024-05-09T21:35:17.435Z,11.04
2024-05-09T21:37:44.034Z,10.95
2024-05-09T21:40:13.993Z,10.87
2024-05-09T21:42:48.676Z,10.81
2024-05-09T21:45:15.256Z,10.77
2024-05-09T21:47:42.245Z,10.70
2024-05-09T21:50:12.505Z,10.63
2024-05-09T21:52:41.826Z,10.59
2024-05-09T21:55:08.653Z,10.55
2024-05-09T21:57:35.270Z,10.49
2024-05-09T22:00:01.821Z,10.43
2024-05-09T22:02:28.451Z,10.41
2024-05-09T22:04:55.265Z,10.35
2024-05-09T22:07:21.996Z,10.29
2024-05-09T22:09:48.992Z,10.25
2024-05-09T22:12:15.498Z,10.23
2024-05-09T22:14:42.005Z,10.15
2024-05-09T22:17:08.872Z,10.11
2024-05-09T22:19:35.663Z,10.07
2024-05-09T22:22:02.305Z,9.98
2024-05-09T22:24:28.813Z,9.95
2024-05-09T22:26:55.326Z,9.93
2024-05-09T22:29:21.811Z,9.86
2024-05-09T22:31:48.276Z,9.80
2024-05-09T22:34:14.982Z,9.75
2024-05-09T22:36:41.556Z,9.73
2024-05-09T22:39:08.065Z,9.69
2024-05-09T22:41:34.596Z,9.65
2024-05-09T22:44:02.327Z,9.63
2024-05-09T22:46:28.971Z,9.60
2024-05-09T22:48:55.691Z,9.57
2024-05-09T22:51:22.227Z,9.52
2024-05-09T22:53:48.710Z,9.47
2024-05-09T22:56:15.225Z,9.43
2024-05-09T22:58:41.726Z,9.41
2024-05-09T23:01:14.462Z,9.37
2024-05-09T23:03:41.242Z,9.32
2024-05-09T23:06:08.256Z,9.29
2024-05-09T23:08:34.767Z,9.25
2024-05-09T23:11:01.493Z,9.20
2024-05-09T23:13:28.106Z,9.16
2024-05-09T23:15:54.749Z,9.12
2024-05-09T23:18:21.351Z,9.09
2024-05-09T23:20:47.930Z,9.05
2024-05-09T23:23:14.464Z,9.01
2024-05-09T23:25:41.782Z,8.97
2024-05-09T23:28:08.940Z,8.94
2024-05-09T23:30:39.073Z,8.89
2024-05-09T23:33:09.311Z,8.87
2024-05-09T23:35:36.056Z,8.83
2024-05-09T23:38:02.766Z,8.82
2024-05-09T23:40:37.860Z,8.79
2024-05-09T23:43:08.186Z,8.76
2024-05-09T23:45:35.086Z,8.73
2024-05-09T23:48:02.584Z,8.69
2024-05-09T23:50:34.788Z,8.66
2024-05-09T23:53:04.777Z,8.61
2024-05-09T23:55:32.084Z,8.57
2024-05-09T23:57:59.181Z,8.54
